sensor_id;sensor_type;location;lat;lon;timestamp;P1;durP1;ratioP1;P2;durP2;ratioP2
17436;SDS011;70275;52.198;5.422;2023-06-14T00:00:39;8.25;;;4.10;;
17436;SDS011;70275;52.198;5.422;2023-06-14T00:03:09;7.50;;;3.78;;
17436;SDS011;70275;52.198;5.422;2023-06-14T00:05:42;6.25;;;3.95;;
17436;SDS011;70275;52.198;5.422;2023-06-14T00:08:11;8.93;;;3.75;;
17436;SDS011;70275;52.198;5.422;2023-06-14T00:10:46;6.03;;;3.70;;
17436;SDS011;70275;52.198;5.422;2023-06-14T00:13:15;7.13;;;4.07;;
17436;SDS011;70275;52.198;5.422;2023-06-14T00:15:44;8.40;;;3.83;;
17436;SDS011;70275;52.198;5.422;2023-06-14T00:18:14;7.22;;;3.95;;
17436;SDS011;70275;52.198;5.422;2023-06-14T00:20:43;7.85;;;4.50;;
17436;SDS011;70275;52.198;5.422;2023-06-14T00:23:12;8.00;;;3.85;;
17436;SDS011;70275;52.198;5.422;2023-06-14T00:25:41;6.82;;;3.83;;
17436;SDS011;70275;52.198;5.422;2023-06-14T00:28:13;8.13;;;3.67;;
17436;SDS011;70275;52.198;5.422;2023-06-14T00:30:42;6.82;;;3.58;;
17436;SDS011;70275;52.198;5.422;2023-06-14T00:33:12;5.80;;;3.58;;
17436;SDS011;70275;52.198;5.422;2023-06-14T00:35:40;4.88;;;3.60;;
17436;SDS011;70275;52.198;5.422;2023-06-14T00:38:09;6.57;;;3.78;;
17436;SDS011;70275;52.198;5.422;2023-06-14T00:40:38;4.63;;;3.67;;
17436;SDS011;70275;52.198;5.422;2023-06-14T00:43:07;6.15;;;3.38;;
17436;SDS011;70275;52.198;5.422;2023-06-14T00:45:39;6.05;;;3.40;;
17436;SDS011;70275;52.198;5.422;2023-06-14T00:48:08;7.03;;;3.67;;
17436;SDS011;70275;52.198;5.422;2023-06-14T00:50:38;12.30;;;3.70;;
17436;SDS011;70275;52.198;5.422;2023-06-14T00:53:10;5.82;;;3.35;;
17436;SDS011;70275;52.198;5.422;2023-06-14T00:55:42;8.23;;;3.90;;
17436;SDS011;70275;52.198;5.422;2023-06-14T00:58:11;4.97;;;3.45;;
17436;SDS011;70275;52.198;5.422;2023-06-14T01:00:44;7.53;;;3.50;;
17436;SDS011;70275;52.198;5.422;2023-06-14T01:03:13;9.15;;;3.45;;
17436;SDS011;70275;52.198;5.422;2023-06-14T01:05:47;4.78;;;3.40;;
17436;SDS011;70275;52.198;5.422;2023-06-14T01:08:20;7.05;;;4.03;;
17436;SDS011;70275;52.198;5.422;2023-06-14T01:10:57;7.32;;;3.85;;
17436;SDS011;70275;52.198;5.422;2023-06-14T01:13:36;5.18;;;3.50;;
17436;SDS011;70275;52.198;5.422;2023-06-14T01:16:11;6.65;;;3.80;;
17436;SDS011;70275;52.198;5.422;2023-06-14T01:18:41;8.45;;;3.58;;
17436;SDS011;70275;52.198;5.422;2023-06-14T01:21:20;5.75;;;3.47;;
17436;SDS011;70275;52.198;5.422;2023-06-14T01:23:52;6.50;;;3.20;;
17436;SDS011;70275;52.198;5.422;2023-06-14T01:26:22;5.25;;;2.95;;
17436;SDS011;70275;52.198;5.422;2023-06-14T01:28:51;8.77;;;3.35;;
17436;SDS011;70275;52.198;5.422;2023-06-14T01:31:23;5.28;;;3.30;;
17436;SDS011;70275;52.198;5.422;2023-06-14T01:33:54;4.15;;;3.40;;
17436;SDS011;70275;52.198;5.422;2023-06-14T01:36:23;7.38;;;3.63;;
17436;SDS011;70275;52.198;5.422;2023-06-14T01:38:58;8.20;;;3.50;;
17436;SDS011;70275;52.198;5.422;2023-06-14T01:41:28;6.07;;;3.13;;
17436;SDS011;70275;52.198;5.422;2023-06-14T01:43:59;5.97;;;3.40;;
17436;SDS011;70275;52.198;5.422;2023-06-14T01:46:29;7.85;;;3.72;;
17436;SDS011;70275;52.198;5.422;2023-06-14T01:48:58;4.50;;;3.05;;
17436;SDS011;70275;52.198;5.422;2023-06-14T01:51:28;6.80;;;3.20;;
17436;SDS011;70275;52.198;5.422;2023-06-14T01:53:59;7.32;;;3.67;;
17436;SDS011;70275;52.198;5.422;2023-06-14T01:56:28;5.03;;;3.55;;
17436;SDS011;70275;52.198;5.422;2023-06-14T01:58:57;9.27;;;3.50;;
17436;SDS011;70275;52.198;5.422;2023-06-14T02:01:26;5.53;;;3.35;;
17436;SDS011;70275;52.198;5.422;2023-06-14T02:03:55;7.47;;;3.40;;
17436;SDS011;70275;52.198;5.422;2023-06-14T02:06:26;5.53;;;3.22;;
17436;SDS011;70275;52.198;5.422;2023-06-14T02:08:55;6.80;;;3.63;;
17436;SDS011;70275;52.198;5.422;2023-06-14T02:11:26;4.25;;;3.20;;
17436;SDS011;70275;52.198;5.422;2023-06-14T02:13:55;7.20;;;3.30;;
17436;SDS011;70275;52.198;5.422;2023-06-14T02:16:25;8.07;;;3.60;;
17436;SDS011;70275;52.198;5.422;2023-06-14T02:18:54;4.63;;;3.10;;
17436;SDS011;70275;52.198;5.422;2023-06-14T02:21:23;7.55;;;3.60;;
17436;SDS011;70275;52.198;5.422;2023-06-14T02:23:52;5.15;;;3.58;;
17436;SDS011;70275;52.198;5.422;2023-06-14T02:26:21;5.82;;;3.40;;
17436;SDS011;70275;52.198;5.422;2023-06-14T02:28:56;4.32;;;3.28;;
17436;SDS011;70275;52.198;5.422;2023-06-14T02:31:26;6.72;;;3.47;;
17436;SDS011;70275;52.198;5.422;2023-06-14T02:33:55;6.78;;;3.10;;
17436;SDS011;70275;52.198;5.422;2023-06-14T02:36:24;8.68;;;3.55;;
17436;SDS011;70275;52.198;5.422;2023-06-14T02:38:54;4.60;;;3.22;;
17436;SDS011;70275;52.198;5.422;2023-06-14T02:41:23;7.70;;;3.58;;
17436;SDS011;70275;52.198;5.422;2023-06-14T02:43:52;6.28;;;3.85;;
17436;SDS011;70275;52.198;5.422;2023-06-14T02:46:24;7.43;;;3.40;;
17436;SDS011;70275;52.198;5.422;2023-06-14T02:48:54;6.63;;;3.22;;
17436;SDS011;70275;52.198;5.422;2023-06-14T02:51:23;7.40;;;3.80;;
17436;SDS011;70275;52.198;5.422;2023-06-14T02:53:52;5.40;;;3.20;;
17436;SDS011;70275;52.198;5.422;2023-06-14T02:56:21;6.47;;;3.60;;
17436;SDS011;70275;52.198;5.422;2023-06-14T02:58:51;5.50;;;3.55;;
17436;SDS011;70275;52.198;5.422;2023-06-14T03:01:22;7.93;;;3.97;;
17436;SDS011;70275;52.198;5.422;2023-06-14T03:03:58;7.25;;;3.72;;
17436;SDS011;70275;52.198;5.422;2023-06-14T03:06:28;5.90;;;3.50;;
17436;SDS011;70275;52.198;5.422;2023-06-14T03:08:58;6.35;;;3.90;;
17436;SDS011;70275;52.198;5.422;2023-06-14T03:11:29;3.78;;;3.20;;
17436;SDS011;70275;52.198;5.422;2023-06-14T03:13:59;6.15;;;3.45;;
17436;SDS011;70275;52.198;5.422;2023-06-14T03:16:32;6.90;;;3.13;;
17436;SDS011;70275;52.198;5.422;2023-06-14T03:19:02;8.00;;;3.60;;
17436;SDS011;70275;52.198;5.422;2023-06-14T03:21:31;9.68;;;3.45;;
17436;SDS011;70275;52.198;5.422;2023-06-14T03:24:00;6.30;;;3.60;;
17436;SDS011;70275;52.198;5.422;2023-06-14T03:26:29;7.07;;;3.78;;
17436;SDS011;70275;52.198;5.422;2023-06-14T03:28:59;7.13;;;3.65;;
17436;SDS011;70275;52.198;5.422;2023-06-14T03:31:28;5.15;;;3.50;;
17436;SDS011;70275;52.198;5.422;2023-06-14T03:34:00;5.95;;;3.85;;
17436;SDS011;70275;52.198;5.422;2023-06-14T03:36:29;7.22;;;3.83;;
17436;SDS011;70275;52.198;5.422;2023-06-14T03:38:58;7.65;;;3.40;;
17436;SDS011;70275;52.198;5.422;2023-06-14T03:41:27;6.07;;;3.38;;
17436;SDS011;70275;52.198;5.422;2023-06-14T03:43:56;9.27;;;3.75;;
17436;SDS011;70275;52.198;5.422;2023-06-14T03:46:25;5.78;;;3.35;;
17436;SDS011;70275;52.198;5.422;2023-06-14T03:48:57;5.22;;;3.40;;
17436;SDS011;70275;52.198;5.422;2023-06-14T03:51:28;7.05;;;3.45;;
17436;SDS011;70275;52.198;5.422;2023-06-14T03:53:57;6.68;;;3.55;;
17436;SDS011;70275;52.198;5.422;2023-06-14T03:56:25;6.50;;;3.78;;
17436;SDS011;70275;52.198;5.422;2023-06-14T03:58:54;5.55;;;3.67;;
17436;SDS011;70275;52.198;5.422;2023-06-14T04:01:23;4.85;;;3.30;;
17436;SDS011;70275;52.198;5.422;2023-06-14T04:03:57;6.78;;;3.40;;
17436;SDS011;70275;52.198;5.422;2023-06-14T04:06:26;7.95;;;4.32;;
17436;SDS011;70275;52.198;5.422;2023-06-14T04:08:58;6.10;;;3.63;;
17436;SDS011;70275;52.198;5.422;2023-06-14T04:11:29;6.00;;;4.00;;
17436;SDS011;70275;52.198;5.422;2023-06-14T04:13:59;6.57;;;3.85;;
17436;SDS011;70275;52.198;5.422;2023-06-14T04:16:29;4.57;;;3.47;;
17436;SDS011;70275;52.198;5.422;2023-06-14T04:19:01;7.57;;;3.95;;
17436;SDS011;70275;52.198;5.422;2023-06-14T04:21:30;5.03;;;3.83;;
17436;SDS011;70275;52.198;5.422;2023-06-14T04:24:00;6.95;;;4.03;;
17436;SDS011;70275;52.198;5.422;2023-06-14T04:26:29;6.22;;;3.80;;
17436;SDS011;70275;52.198;5.422;2023-06-14T04:28:58;8.15;;;4.25;;
17436;SDS011;70275;52.198;5.422;2023-06-14T04:31:28;9.40;;;4.55;;
17436;SDS011;70275;52.198;5.422;2023-06-14T04:34:01;6.07;;;4.13;;
17436;SDS011;70275;52.198;5.422;2023-06-14T04:36:32;8.38;;;4.50;;
17436;SDS011;70275;52.198;5.422;2023-06-14T04:39:02;7.95;;;4.07;;
17436;SDS011;70275;52.198;5.422;2023-06-14T04:41:31;6.18;;;3.88;;
17436;SDS011;70275;52.198;5.422;2023-06-14T04:44:00;10.35;;;4.35;;
17436;SDS011;70275;52.198;5.422;2023-06-14T04:46:30;5.38;;;3.85;;
17436;SDS011;70275;52.198;5.422;2023-06-14T04:49:13;5.78;;;3.67;;
17436;SDS011;70275;52.198;5.422;2023-06-14T04:51:43;5.78;;;4.30;;
17436;SDS011;70275;52.198;5.422;2023-06-14T04:54:16;6.65;;;3.92;;
17436;SDS011;70275;52.198;5.422;2023-06-14T04:56:45;6.75;;;4.10;;
17436;SDS011;70275;52.198;5.422;2023-06-14T04:59:14;7.32;;;3.72;;
17436;SDS011;70275;52.198;5.422;2023-06-14T05:01:43;6.30;;;3.90;;
17436;SDS011;70275;52.198;5.422;2023-06-14T05:04:16;5.75;;;3.53;;
17436;SDS011;70275;52.198;5.422;2023-06-14T05:06:46;4.75;;;3.50;;
17436;SDS011;70275;52.198;5.422;2023-06-14T05:09:15;6.00;;;3.55;;
17436;SDS011;70275;52.198;5.422;2023-06-14T05:11:45;4.55;;;3.55;;
17436;SDS011;70275;52.198;5.422;2023-06-14T05:14:16;5.68;;;3.53;;
17436;SDS011;70275;52.198;5.422;2023-06-14T05:16:47;8.13;;;3.47;;
17436;SDS011;70275;52.198;5.422;2023-06-14T05:19:19;4.22;;;3.47;;
17436;SDS011;70275;52.198;5.422;2023-06-14T05:21:48;9.60;;;3.75;;
17436;SDS011;70275;52.198;5.422;2023-06-14T05:24:17;7.88;;;3.90;;
17436;SDS011;70275;52.198;5.422;2023-06-14T05:26:47;9.90;;;3.42;;
17436;SDS011;70275;52.198;5.422;2023-06-14T05:29:16;6.70;;;3.95;;
17436;SDS011;70275;52.198;5.422;2023-06-14T05:31:45;6.03;;;3.78;;
17436;SDS011;70275;52.198;5.422;2023-06-14T05:34:15;7.85;;;3.78;;
17436;SDS011;70275;52.198;5.422;2023-06-14T05:36:46;4.93;;;3.28;;
17436;SDS011;70275;52.198;5.422;2023-06-14T05:39:15;6.53;;;3.70;;
17436;SDS011;70275;52.198;5.422;2023-06-14T05:41:45;6.22;;;3.60;;
17436;SDS011;70275;52.198;5.422;2023-06-14T05:44:14;7.28;;;3.30;;
17436;SDS011;70275;52.198;5.422;2023-06-14T05:46:44;7.18;;;3.25;;
17436;SDS011;70275;52.198;5.422;2023-06-14T05:49:14;7.82;;;5.90;;
17436;SDS011;70275;52.198;5.422;2023-06-14T05:51:43;5.72;;;3.58;;
17436;SDS011;70275;52.198;5.422;2023-06-14T05:54:15;5.18;;;3.42;;
17436;SDS011;70275;52.198;5.422;2023-06-14T05:56:44;6.80;;;3.65;;
17436;SDS011;70275;52.198;5.422;2023-06-14T05:59:13;9.55;;;2.90;;
17436;SDS011;70275;52.198;5.422;2023-06-14T06:01:43;9.45;;;3.55;;
17436;SDS011;70275;52.198;5.422;2023-06-14T06:04:12;4.45;;;2.92;;
17436;SDS011;70275;52.198;5.422;2023-06-14T06:06:41;5.70;;;3.17;;
17436;SDS011;70275;52.198;5.422;2023-06-14T06:09:13;4.72;;;3.00;;
17436;SDS011;70275;52.198;5.422;2023-06-14T06:11:42;8.15;;;3.08;;
17436;SDS011;70275;52.198;5.422;2023-06-14T06:14:11;6.82;;;2.80;;
17436;SDS011;70275;52.198;5.422;2023-06-14T06:16:40;3.72;;;2.90;;
17436;SDS011;70275;52.198;5.422;2023-06-14T06:19:10;6.28;;;3.15;;
17436;SDS011;70275;52.198;5.422;2023-06-14T06:21:39;6.70;;;3.40;;
17436;SDS011;70275;52.198;5.422;2023-06-14T06:24:08;5.13;;;2.75;;
17436;SDS011;70275;52.198;5.422;2023-06-14T06:26:40;8.48;;;2.95;;
17436;SDS011;70275;52.198;5.422;2023-06-14T06:29:10;5.22;;;3.03;;
17436;SDS011;70275;52.198;5.422;2023-06-14T06:31:39;5.25;;;3.03;;
17436;SDS011;70275;52.198;5.422;2023-06-14T06:34:08;4.10;;;2.90;;
17436;SDS011;70275;52.198;5.422;2023-06-14T06:36:37;4.75;;;3.53;;
17436;SDS011;70275;52.198;5.422;2023-06-14T06:39:07;3.95;;;3.25;;
17436;SDS011;70275;52.198;5.422;2023-06-14T06:41:40;8.95;;;3.60;;
17436;SDS011;70275;52.198;5.422;2023-06-14T06:44:09;6.28;;;3.00;;
17436;SDS011;70275;52.198;5.422;2023-06-14T06:46:38;3.95;;;2.67;;
17436;SDS011;70275;52.198;5.422;2023-06-14T06:49:08;7.18;;;3.30;;
17436;SDS011;70275;52.198;5.422;2023-06-14T06:51:37;4.20;;;3.15;;
17436;SDS011;70275;52.198;5.422;2023-06-14T06:54:10;7.53;;;3.15;;
17436;SDS011;70275;52.198;5.422;2023-06-14T06:56:42;6.25;;;3.25;;
17436;SDS011;70275;52.198;5.422;2023-06-14T06:59:11;5.50;;;3.33;;
17436;SDS011;70275;52.198;5.422;2023-06-14T07:01:42;4.63;;;3.25;;
17436;SDS011;70275;52.198;5.422;2023-06-14T07:04:11;10.07;;;4.63;;
17436;SDS011;70275;52.198;5.422;2023-06-14T07:06:41;8.98;;;3.97;;
17436;SDS011;70275;52.198;5.422;2023-06-14T07:09:12;10.48;;;3.60;;
17436;SDS011;70275;52.198;5.422;2023-06-14T07:11:44;7.60;;;3.67;;
17436;SDS011;70275;52.198;5.422;2023-06-14T07:14:13;4.97;;;3.17;;
17436;SDS011;70275;52.198;5.422;2023-06-14T07:16:42;4.15;;;3.20;;
17436;SDS011;70275;52.198;5.422;2023-06-14T07:19:12;4.95;;;3.90;;
17436;SDS011;70275;52.198;5.422;2023-06-14T07:21:41;5.88;;;3.53;;
17436;SDS011;70275;52.198;5.422;2023-06-14T07:24:10;7.32;;;3.45;;
17436;SDS011;70275;52.198;5.422;2023-06-14T07:26:39;4.55;;;2.80;;
17436;SDS011;70275;52.198;5.422;2023-06-14T07:29:10;4.15;;;3.08;;
17436;SDS011;70275;52.198;5.422;2023-06-14T07:31:40;4.57;;;2.40;;
17436;SDS011;70275;52.198;5.422;2023-06-14T07:34:09;3.53;;;2.92;;
17436;SDS011;70275;52.198;5.422;2023-06-14T07:36:38;5.80;;;2.70;;
17436;SDS011;70275;52.198;5.422;2023-06-14T07:39:09;4.35;;;3.00;;
17436;SDS011;70275;52.198;5.422;2023-06-14T07:41:38;6.25;;;2.70;;
17436;SDS011;70275;52.198;5.422;2023-06-14T07:44:07;6.03;;;2.72;;
17436;SDS011;70275;52.198;5.422;2023-06-14T07:46:41;3.28;;;2.60;;
17436;SDS011;70275;52.198;5.422;2023-06-14T07:49:11;3.60;;;2.70;;
17436;SDS011;70275;52.198;5.422;2023-06-14T07:51:41;3.95;;;2.70;;
17436;SDS011;70275;52.198;5.422;2023-06-14T07:54:12;3.38;;;2.42;;
17436;SDS011;70275;52.198;5.422;2023-06-14T07:56:41;3.85;;;2.50;;
17436;SDS011;70275;52.198;5.422;2023-06-14T07:59:13;3.97;;;2.45;;
17436;SDS011;70275;52.198;5.422;2023-06-14T08:01:43;4.70;;;2.67;;
17436;SDS011;70275;52.198;5.422;2023-06-14T08:04:13;3.92;;;2.03;;
17436;SDS011;70275;52.198;5.422;2023-06-14T08:06:42;5.85;;;2.33;;
17436;SDS011;70275;52.198;5.422;2023-06-14T08:09:13;4.57;;;2.40;;
17436;SDS011;70275;52.198;5.422;2023-06-14T08:11:42;3.92;;;2.28;;
17436;SDS011;70275;52.198;5.422;2023-06-14T08:14:14;4.07;;;2.28;;
17436;SDS011;70275;52.198;5.422;2023-06-14T08:16:43;4.35;;;2.25;;
17436;SDS011;70275;52.198;5.422;2023-06-14T08:19:12;6.57;;;2.30;;
17436;SDS011;70275;52.198;5.422;2023-06-14T08:21:41;2.53;;;1.95;;
17436;SDS011;70275;52.198;5.422;2023-06-14T08:24:11;2.47;;;2.20;;
17436;SDS011;70275;52.198;5.422;2023-06-14T08:26:40;6.28;;;2.30;;
17436;SDS011;70275;52.198;5.422;2023-06-14T08:29:09;4.25;;;2.03;;
17436;SDS011;70275;52.198;5.422;2023-06-14T08:31:41;2.65;;;1.77;;
17436;SDS011;70275;52.198;5.422;2023-06-14T08:34:10;3.63;;;2.00;;
17436;SDS011;70275;52.198;5.422;2023-06-14T08:36:39;4.07;;;2.13;;
17436;SDS011;70275;52.198;5.422;2023-06-14T08:41:45;2.95;;;2.10;;
17436;SDS011;70275;52.198;5.422;2023-06-14T08:44:16;2.70;;;2.30;;
17436;SDS011;70275;52.198;5.422;2023-06-14T08:46:48;2.00;;;1.80;;
17436;SDS011;70275;52.198;5.422;2023-06-14T08:49:19;3.78;;;1.80;;
17436;SDS011;70275;52.198;5.422;2023-06-14T08:51:49;2.58;;;2.30;;
17436;SDS011;70275;52.198;5.422;2023-06-14T08:54:25;3.83;;;1.88;;
17436;SDS011;70275;52.198;5.422;2023-06-14T08:56:56;3.75;;;1.90;;
17436;SDS011;70275;52.198;5.422;2023-06-14T08:59:25;2.97;;;1.90;;
17436;SDS011;70275;52.198;5.422;2023-06-14T09:01:59;2.80;;;2.05;;
17436;SDS011;70275;52.198;5.422;2023-06-14T09:04:28;2.45;;;2.20;;
17436;SDS011;70275;52.198;5.422;2023-06-14T09:06:57;4.05;;;1.98;;
17436;SDS011;70275;52.198;5.422;2023-06-14T09:09:26;5.05;;;2.20;;
17436;SDS011;70275;52.198;5.422;2023-06-14T09:11:55;2.00;;;1.80;;
17436;SDS011;70275;52.198;5.422;2023-06-14T09:14:24;2.25;;;2.03;;
17436;SDS011;70275;52.198;5.422;2023-06-14T09:16:53;2.80;;;1.85;;
17436;SDS011;70275;52.198;5.422;2023-06-14T09:19:25;2.40;;;2.20;;
17436;SDS011;70275;52.198;5.422;2023-06-14T09:21:54;4.15;;;2.08;;
17436;SDS011;70275;52.198;5.422;2023-06-14T09:24:23;2.80;;;2.00;;
17436;SDS011;70275;52.198;5.422;2023-06-14T09:26:56;2.88;;;1.90;;
17436;SDS011;70275;52.198;5.422;2023-06-14T09:29:25;2.75;;;2.00;;
17436;SDS011;70275;52.198;5.422;2023-06-14T09:31:55;3.78;;;1.70;;
17436;SDS011;70275;52.198;5.422;2023-06-14T09:34:27;4.88;;;1.90;;
17436;SDS011;70275;52.198;5.422;2023-06-14T09:36:56;3.03;;;2.00;;
17436;SDS011;70275;52.198;5.422;2023-06-14T09:39:25;2.63;;;1.85;;
17436;SDS011;70275;52.198;5.422;2023-06-14T09:41:54;1.70;;;1.60;;
17436;SDS011;70275;52.198;5.422;2023-06-14T09:44:23;4.05;;;1.92;;
17436;SDS011;70275;52.198;5.422;2023-06-14T09:46:55;3.25;;;1.77;;
17436;SDS011;70275;52.198;5.422;2023-06-14T09:49:28;3.97;;;2.22;;
17436;SDS011;70275;52.198;5.422;2023-06-14T09:51:57;3.67;;;2.17;;
17436;SDS011;70275;52.198;5.422;2023-06-14T09:54:27;5.20;;;1.92;;
17436;SDS011;70275;52.198;5.422;2023-06-14T09:56:58;4.05;;;2.00;;
17436;SDS011;70275;52.198;5.422;2023-06-14T09:59:31;3.35;;;2.08;;
17436;SDS011;70275;52.198;5.422;2023-06-14T10:02:04;6.85;;;2.28;;
17436;SDS011;70275;52.198;5.422;2023-06-14T10:04:46;5.80;;;2.28;;
17436;SDS011;70275;52.198;5.422;2023-06-14T10:07:26;2.88;;;2.17;;
17436;SDS011;70275;52.198;5.422;2023-06-14T10:09:58;3.53;;;2.50;;
17436;SDS011;70275;52.198;5.422;2023-06-14T10:12:27;2.50;;;2.30;;
17436;SDS011;70275;52.198;5.422;2023-06-14T10:14:58;4.78;;;3.10;;
17436;SDS011;70275;52.198;5.422;2023-06-14T10:17:32;10.05;;;5.70;;
17436;SDS011;70275;52.198;5.422;2023-06-14T10:20:24;12.27;;;7.88;;
17436;SDS011;70275;52.198;5.422;2023-06-14T10:23:02;5.53;;;2.72;;
17436;SDS011;70275;52.198;5.422;2023-06-14T10:25:38;4.70;;;2.33;;
17436;SDS011;70275;52.198;5.422;2023-06-14T10:28:16;5.97;;;3.78;;
17436;SDS011;70275;52.198;5.422;2023-06-14T10:31:04;3.50;;;2.10;;
17436;SDS011;70275;52.198;5.422;2023-06-14T10:33:35;7.28;;;3.70;;
17436;SDS011;70275;52.198;5.422;2023-06-14T10:36:24;3.53;;;2.38;;
17436;SDS011;70275;52.198;5.422;2023-06-14T10:39:05;2.90;;;1.85;;
17436;SDS011;70275;52.198;5.422;2023-06-14T10:41:36;4.38;;;1.75;;
17436;SDS011;70275;52.198;5.422;2023-06-14T10:44:10;4.30;;;2.67;;
17436;SDS011;70275;52.198;5.422;2023-06-14T10:47:08;7.28;;;3.65;;
17436;SDS011;70275;52.198;5.422;2023-06-14T10:49:50;1.83;;;1.63;;
17436;SDS011;70275;52.198;5.422;2023-06-14T10:52:25;3.50;;;2.17;;
17436;SDS011;70275;52.198;5.422;2023-06-14T10:55:06;3.05;;;2.00;;
17436;SDS011;70275;52.198;5.422;2023-06-14T10:57:40;4.80;;;2.20;;
17436;SDS011;70275;52.198;5.422;2023-06-14T11:00:12;3.67;;;2.97;;
17436;SDS011;70275;52.198;5.422;2023-06-14T11:06:01;4.40;;;2.35;;
17436;SDS011;70275;52.198;5.422;2023-06-14T11:11:57;3.63;;;2.05;;
17436;SDS011;70275;52.198;5.422;2023-06-14T11:14:29;4.53;;;1.65;;
17436;SDS011;70275;52.198;5.422;2023-06-14T11:16:59;3.08;;;2.33;;
17436;SDS011;70275;52.198;5.422;2023-06-14T11:19:28;4.07;;;2.15;;
17436;SDS011;70275;52.198;5.422;2023-06-14T11:21:57;5.57;;;2.17;;
17436;SDS011;70275;52.198;5.422;2023-06-14T11:24:29;3.38;;;1.75;;
17436;SDS011;70275;52.198;5.422;2023-06-14T11:27:01;4.25;;;2.00;;
17436;SDS011;70275;52.198;5.422;2023-06-14T11:29:31;6.32;;;1.98;;
17436;SDS011;70275;52.198;5.422;2023-06-14T11:32:00;3.25;;;2.10;;
17436;SDS011;70275;52.198;5.422;2023-06-14T11:34:29;2.60;;;1.90;;
17436;SDS011;70275;52.198;5.422;2023-06-14T11:36:58;2.47;;;2.00;;
17436;SDS011;70275;52.198;5.422;2023-06-14T11:39:30;3.38;;;2.50;;
17436;SDS011;70275;52.198;5.422;2023-06-14T11:41:59;3.80;;;1.95;;
17436;SDS011;70275;52.198;5.422;2023-06-14T11:44:31;3.10;;;1.83;;
17436;SDS011;70275;52.198;5.422;2023-06-14T11:47:03;2.80;;;2.13;;
17436;SDS011;70275;52.198;5.422;2023-06-14T11:49:34;1.98;;;1.85;;
17436;SDS011;70275;52.198;5.422;2023-06-14T11:52:04;4.28;;;1.98;;
17436;SDS011;70275;52.198;5.422;2023-06-14T11:54:36;3.65;;;1.73;;
17436;SDS011;70275;52.198;5.422;2023-06-14T11:57:06;1.80;;;1.70;;
17436;SDS011;70275;52.198;5.422;2023-06-14T11:59:37;2.85;;;1.75;;
17436;SDS011;70275;52.198;5.422;2023-06-14T12:02:09;3.97;;;1.80;;
17436;SDS011;70275;52.198;5.422;2023-06-14T12:04:42;2.22;;;1.92;;
17436;SDS011;70275;52.198;5.422;2023-06-14T12:07:12;4.47;;;2.13;;
17436;SDS011;70275;52.198;5.422;2023-06-14T12:12:38;3.97;;;1.92;;
17436;SDS011;70275;52.198;5.422;2023-06-14T12:15:08;2.83;;;1.70;;
17436;SDS011;70275;52.198;5.422;2023-06-14T12:17:39;2.28;;;1.80;;
17436;SDS011;70275;52.198;5.422;2023-06-14T12:20:11;3.20;;;1.83;;
17436;SDS011;70275;52.198;5.422;2023-06-14T12:22:51;2.65;;;1.67;;
17436;SDS011;70275;52.198;5.422;2023-06-14T12:25:28;3.50;;;1.80;;
17436;SDS011;70275;52.198;5.422;2023-06-14T12:28:03;3.88;;;1.95;;
17436;SDS011;70275;52.198;5.422;2023-06-14T12:30:34;1.92;;;1.75;;
17436;SDS011;70275;52.198;5.422;2023-06-14T12:33:05;2.28;;;1.63;;
17436;SDS011;70275;52.198;5.422;2023-06-14T12:35:34;3.55;;;2.00;;
17436;SDS011;70275;52.198;5.422;2023-06-14T12:38:03;2.55;;;1.80;;
17436;SDS011;70275;52.198;5.422;2023-06-14T12:40:35;4.03;;;1.98;;
17436;SDS011;70275;52.198;5.422;2023-06-14T12:43:04;2.78;;;2.15;;
17436;SDS011;70275;52.198;5.422;2023-06-14T12:45:33;4.47;;;1.90;;
17436;SDS011;70275;52.198;5.422;2023-06-14T12:48:02;4.30;;;1.98;;
17436;SDS011;70275;52.198;5.422;2023-06-14T12:50:34;5.07;;;1.90;;
17436;SDS011;70275;52.198;5.422;2023-06-14T12:53:02;3.40;;;1.80;;
17436;SDS011;70275;52.198;5.422;2023-06-14T12:55:31;3.05;;;2.00;;
17436;SDS011;70275;52.198;5.422;2023-06-14T12:58:03;4.40;;;1.92;;
17436;SDS011;70275;52.198;5.422;2023-06-14T13:00:32;3.38;;;1.70;;
17436;SDS011;70275;52.198;5.422;2023-06-14T13:03:01;2.58;;;1.70;;
17436;SDS011;70275;52.198;5.422;2023-06-14T13:05:30;5.20;;;2.10;;
17436;SDS011;70275;52.198;5.422;2023-06-14T13:07:59;4.95;;;2.30;;
17436;SDS011;70275;52.198;5.422;2023-06-14T13:10:28;3.72;;;1.55;;
17436;SDS011;70275;52.198;5.422;2023-06-14T13:12:59;2.25;;;1.60;;
17436;SDS011;70275;52.198;5.422;2023-06-14T13:15:29;3.13;;;1.60;;
17436;SDS011;70275;52.198;5.422;2023-06-14T13:17:58;1.65;;;1.52;;
17436;SDS011;70275;52.198;5.422;2023-06-14T13:20:27;3.92;;;1.67;;
17436;SDS011;70275;52.198;5.422;2023-06-14T13:22:56;3.53;;;2.10;;
17436;SDS011;70275;52.198;5.422;2023-06-14T13:25:29;3.70;;;1.52;;
17436;SDS011;70275;52.198;5.422;2023-06-14T13:28:00;3.80;;;1.75;;
17436;SDS011;70275;52.198;5.422;2023-06-14T13:30:30;2.92;;;1.60;;
17436;SDS011;70275;52.198;5.422;2023-06-14T13:33:00;3.55;;;1.63;;
17436;SDS011;70275;52.198;5.422;2023-06-14T13:35:29;3.60;;;1.65;;
17436;SDS011;70275;52.198;5.422;2023-06-14T13:37:58;2.00;;;1.60;;
17436;SDS011;70275;52.198;5.422;2023-06-14T13:40:27;3.92;;;1.77;;
17436;SDS011;70275;52.198;5.422;2023-06-14T13:42:56;3.30;;;1.45;;
17436;SDS011;70275;52.198;5.422;2023-06-14T13:45:28;2.33;;;1.80;;
17436;SDS011;70275;52.198;5.422;2023-06-14T13:47:57;2.03;;;1.60;;
17436;SDS011;70275;52.198;5.422;2023-06-14T13:50:26;2.78;;;1.63;;
17436;SDS011;70275;52.198;5.422;2023-06-14T13:52:55;2.00;;;1.80;;
17436;SDS011;70275;52.198;5.422;2023-06-14T13:55:24;4.68;;;1.80;;
17436;SDS011;70275;52.198;5.422;2023-06-14T13:57:53;3.25;;;1.88;;
17436;SDS011;70275;52.198;5.422;2023-06-14T14:00:22;3.45;;;1.80;;
17436;SDS011;70275;52.198;5.422;2023-06-14T14:02:54;4.25;;;1.77;;
17436;SDS011;70275;52.198;5.422;2023-06-14T14:05:25;2.20;;;1.83;;
17436;SDS011;70275;52.198;5.422;2023-06-14T14:07:54;4.70;;;1.80;;
17436;SDS011;70275;52.198;5.422;2023-06-14T14:10:24;2.63;;;1.83;;
17436;SDS011;70275;52.198;5.422;2023-06-14T14:12:53;2.83;;;1.95;;
17436;SDS011;70275;52.198;5.422;2023-06-14T14:15:22;2.05;;;1.50;;
17436;SDS011;70275;52.198;5.422;2023-06-14T14:17:54;4.80;;;1.83;;
17436;SDS011;70275;52.198;5.422;2023-06-14T14:20:23;4.78;;;2.00;;
17436;SDS011;70275;52.198;5.422;2023-06-14T14:22:52;4.78;;;2.00;;
17436;SDS011;70275;52.198;5.422;2023-06-14T14:25:21;2.22;;;1.88;;
17436;SDS011;70275;52.198;5.422;2023-06-14T14:27:50;2.42;;;1.90;;
17436;SDS011;70275;52.198;5.422;2023-06-14T14:30:20;5.07;;;2.08;;
17436;SDS011;70275;52.198;5.422;2023-06-14T14:32:49;3.97;;;1.80;;
17436;SDS011;70275;52.198;5.422;2023-06-14T14:35:20;2.22;;;1.75;;
17436;SDS011;70275;52.198;5.422;2023-06-14T14:37:52;2.63;;;1.92;;
17436;SDS011;70275;52.198;5.422;2023-06-14T14:40:21;2.20;;;2.00;;
17436;SDS011;70275;52.198;5.422;2023-06-14T14:42:49;4.30;;;1.98;;
17436;SDS011;70275;52.198;5.422;2023-06-14T14:45:18;7.90;;;2.10;;
17436;SDS011;70275;52.198;5.422;2023-06-14T14:47:47;2.50;;;1.75;;
17436;SDS011;70275;52.198;5.422;2023-06-14T14:50:16;4.85;;;2.08;;
17436;SDS011;70275;52.198;5.422;2023-06-14T14:52:48;3.78;;;1.55;;
17436;SDS011;70275;52.198;5.422;2023-06-14T14:55:17;2.25;;;1.48;;
17436;SDS011;70275;52.198;5.422;2023-06-14T14:57:46;1.73;;;1.63;;
17436;SDS011;70275;52.198;5.422;2023-06-14T15:00:15;1.63;;;1.52;;
17436;SDS011;70275;52.198;5.422;2023-06-14T15:02:45;2.22;;;1.65;;
17436;SDS011;70275;52.198;5.422;2023-06-14T15:05:14;3.72;;;1.80;;
17436;SDS011;70275;52.198;5.422;2023-06-14T15:07:43;2.38;;;1.85;;
17436;SDS011;70275;52.198;5.422;2023-06-14T15:10:15;3.13;;;1.73;;
17436;SDS011;70275;52.198;5.422;2023-06-14T15:12:44;3.50;;;1.27;;
17436;SDS011;70275;52.198;5.422;2023-06-14T15:15:13;2.22;;;1.30;;
17436;SDS011;70275;52.198;5.422;2023-06-14T15:17:42;1.80;;;1.58;;
17436;SDS011;70275;52.198;5.422;2023-06-14T15:20:11;2.42;;;1.35;;